createdAt,value
2022-11-19T00:02:54.932Z,0.78
2022-11-19T00:06:58.489Z,0.73
2022-11-19T00:11:09.748Z,0.71
2022-11-19T00:15:14.631Z,0.70
2022-11-19T00:19:17.854Z,0.71
2022-11-19T00:23:21.101Z,0.74
2022-11-19T00:27:24.042Z,0.64
2022-11-19T00:31:28.376Z,0.58
2022-11-19T00:35:31.286Z,0.61
2022-11-19T00:39:34.375Z,0.53
2022-11-19T00:43:49.950Z,0.47
2022-11-19T00:47:54.404Z,0.46
2022-11-19T00:51:57.349Z,0.48
2022-11-19T00:56:02.293Z,0.45
2022-11-19T01:00:05.769Z,0.32
2022-11-19T01:04:10.104Z,0.21
2022-11-19T01:08:13.082Z,0.14
2022-11-19T01:12:16.173Z,0.08
2022-11-19T01:16:21.864Z,0.03
2022-11-19T01:20:26.200Z,-0.03
2022-11-19T01:24:29.139Z,-0.09
2022-11-19T01:28:32.404Z,-0.11
2022-11-19T01:32:35.330Z,-0.16
2022-11-19T01:36:39.639Z,-0.22
2022-11-19T01:40:44.635Z,-0.22
2022-11-19T01:45:06.447Z,-0.24
2022-11-19T01:49:13.614Z,-0.20
2022-11-19T01:53:19.921Z,-0.25
2022-11-19T01:57:23.335Z,-0.22
2022-11-19T02:01:26.420Z,-0.30
2022-11-19T02:05:29.631Z,-0.33
2022-11-19T02:09:34.475Z,-0.35
2022-11-19T02:13:43.850Z,-0.40
2022-11-19T02:18:08.958Z,-0.38
2022-11-19T02:22:23.968Z,-0.38
2022-11-19T02:27:01.988Z,-0.26
2022-11-19T02:31:12.759Z,-0.12
2022-11-19T02:35:23.342Z,-0.05
2022-11-19T02:39:35.771Z,-0.06
2022-11-19T02:43:42.320Z,-0.07
2022-11-19T02:47:50.584Z,-0.12
2022-11-19T02:51:53.879Z,-0.06
2022-11-19T02:56:14.770Z,-0.00
2022-11-19T03:00:36.875Z,-0.00
2022-11-19T03:04:41.688Z,-0.08
2022-11-19T03:08:45.678Z,-0.14
2022-11-19T03:12:54.469Z,-0.13
2022-11-19T03:17:03.084Z,-0.19
2022-11-19T03:21:14.132Z,-0.16
2022-11-19T03:25:21.405Z,-0.28
2022-11-19T03:29:27.553Z,-0.35
2022-11-19T03:33:34.688Z,-0.30
2022-11-19T03:37:41.943Z,-0.30
2022-11-19T03:41:47.934Z,-0.30
2022-11-19T03:45:53.966Z,-0.34
2022-11-19T03:50:00.893Z,-0.35
2022-11-19T03:54:06.637Z,-0.38
2022-11-19T03:58:12.012Z,-0.40
2022-11-19T04:02:16.264Z,-0.42
2022-11-19T04:06:19.213Z,-0.41
2022-11-19T04:10:23.500Z,-0.44
2022-11-19T04:14:26.546Z,-0.48
2022-11-19T04:18:29.502Z,-0.53
2022-11-19T04:22:32.497Z,-0.54
2022-11-19T04:26:36.825Z,-0.51
2022-11-19T04:30:39.701Z,-0.53
2022-11-19T04:34:42.683Z,-0.60
2022-11-19T04:38:45.670Z,-0.59
2022-11-19T04:42:49.950Z,-0.61
2022-11-19T04:46:52.899Z,-0.61
2022-11-19T04:50:55.781Z,-0.61
2022-11-19T04:54:58.706Z,-0.62
2022-11-19T04:59:02.955Z,-0.57
2022-11-19T05:03:06.098Z,-0.57
2022-11-19T05:07:09.154Z,-0.57
2022-11-19T05:11:12.164Z,-0.56
2022-11-19T05:15:16.581Z,-0.59
2022-11-19T05:19:19.650Z,-0.60
2022-11-19T05:23:23.016Z,-0.62
2022-11-19T05:27:25.894Z,-0.63
2022-11-19T05:31:31.151Z,-0.58
2022-11-19T05:35:34.084Z,-0.65
2022-11-19T05:39:37.282Z,-0.61
2022-11-19T05:43:40.193Z,-0.65
2022-11-19T05:47:48.411Z,-0.64
2022-11-19T05:51:51.751Z,-0.56
2022-11-19T05:55:54.796Z,-0.55
2022-11-19T05:59:57.702Z,-0.56
2022-11-19T06:04:02.170Z,-0.61
2022-11-19T06:08:05.666Z,-0.61
2022-11-19T06:12:08.901Z,-0.63
2022-11-19T06:16:11.762Z,-0.67
2022-11-19T06:20:16.305Z,-0.63
2022-11-19T06:24:19.799Z,-0.62
2022-11-19T06:28:22.683Z,-0.62
2022-11-19T06:32:25.795Z,-0.66
2022-11-19T06:36:36.102Z,-0.66
2022-11-19T06:40:44.198Z,-0.67
2022-11-19T06:44:47.086Z,-0.68
2022-11-19T06:48:50.045Z,-0.64
2022-11-19T06:52:54.310Z,-0.58
2022-11-19T06:56:57.269Z,-0.53
2022-11-19T07:01:00.255Z,-0.57
2022-11-19T07:05:03.207Z,-0.63
2022-11-19T07:09:07.451Z,-0.64
2022-11-19T07:13:10.700Z,-0.67
2022-11-19T07:17:13.612Z,-0.68
2022-11-19T07:21:16.636Z,-0.64
2022-11-19T07:25:21.111Z,-0.58
2022-11-19T07:29:24.384Z,-0.55
2022-11-19T07:33:27.363Z,-0.59
2022-11-19T07:37:30.303Z,-0.61
2022-11-19T07:41:52.468Z,-0.63
2022-11-19T07:45:55.539Z,-0.74
2022-11-19T07:49:58.569Z,-0.80
2022-11-19T07:54:01.552Z,-0.83
2022-11-19T07:58:05.915Z,-0.82
2022-11-19T08:02:12.024Z,-0.84
2022-11-19T08:06:16.470Z,-0.84
2022-11-19T08:10:19.467Z,-0.83
2022-11-19T08:14:24.532Z,-0.81
2022-11-19T08:18:31.172Z,-0.73
2022-11-19T08:22:35.876Z,-0.59
2022-11-19T08:26:40.769Z,-0.50
2022-11-19T08:30:46.601Z,-0.44
2022-11-19T08:34:49.507Z,-0.38
2022-11-19T08:38:52.385Z,-0.45
2022-11-19T08:43:01.333Z,-0.40
2022-11-19T08:47:05.736Z,-0.45
2022-11-19T08:51:10.184Z,-0.41
2022-11-19T08:55:13.331Z,-0.43
2022-11-19T08:59:16.287Z,-0.45
2022-11-19T09:03:20.596Z,-0.47
2022-11-19T09:07:23.493Z,-0.53
2022-11-19T09:11:36.225Z,-0.46
2022-11-19T09:15:41.730Z,-0.31
2022-11-19T09:19:46.282Z,-0.26
2022-11-19T09:23:49.173Z,-0.14
2022-11-19T09:27:52.293Z,-0.14
2022-11-19T09:31:55.590Z,-0.12
2022-11-19T09:35:59.873Z,-0.07
2022-11-19T09:40:03.042Z,0.04
2022-11-19T09:44:27.196Z,0.05
2022-11-19T09:48:35.212Z,0.07
2022-11-19T09:52:43.990Z,0.14
2022-11-19T09:56:50.089Z,0.21
2022-11-19T10:00:53.088Z,0.28
2022-11-19T10:04:56.066Z,0.32
2022-11-19T10:09:27.531Z,0.25
2022-11-19T10:13:44.572Z,0.31
2022-11-19T10:17:59.873Z,0.36
2022-11-19T10:22:09.219Z,0.35
2022-11-19T10:26:27.487Z,0.31
2022-11-19T10:30:32.064Z,0.29
2022-11-19T10:34:38.871Z,0.28
2022-11-19T10:38:51.426Z,0.26
2022-11-19T10:42:59.865Z,0.31
2022-11-19T10:47:04.597Z,0.42
2022-11-19T10:51:14.417Z,0.41
2022-11-19T10:55:24.318Z,0.35
2022-11-19T10:59:31.640Z,0.37
2022-11-19T11:03:39.360Z,0.47
2022-11-19T11:07:54.114Z,0.58
2022-11-19T11:12:15.856Z,0.67
2022-11-19T11:16:23.490Z,0.67
2022-11-19T11:20:28.495Z,0.58
2022-11-19T11:24:33.808Z,0.68
2022-11-19T11:28:37.099Z,0.75
2022-11-19T11:32:42.549Z,0.73
2022-11-19T11:36:45.612Z,0.79
2022-11-19T11:41:20.684Z,0.80
2022-11-19T11:45:27.534Z,0.94
2022-11-19T11:49:36.147Z,1.03
2022-11-19T11:53:39.477Z,1.09
2022-11-19T11:57:52.913Z,1.12
2022-11-19T12:01:57.456Z,1.17
2022-11-19T12:06:12.912Z,1.19
2022-11-19T12:10:25.538Z,1.29
2022-11-19T12:14:32.662Z,1.23
2022-11-19T12:18:46.128Z,1.24
2022-11-19T12:23:04.961Z,1.23
2022-11-19T12:27:17.726Z,1.21
2022-11-19T12:31:35.839Z,1.17
2022-11-19T12:35:52.969Z,1.19
2022-11-19T12:40:05.842Z,1.17
2022-11-19T12:44:20.459Z,1.16
2022-11-19T12:48:33.116Z,1.16
2022-11-19T12:52:57.628Z,1.19
2022-11-19T12:57:14.161Z,1.17
2022-11-19T13:01:22.212Z,1.12
2022-11-19T13:05:35.415Z,1.12
2022-11-19T13:09:43.805Z,1.14
2022-11-19T13:13:53.686Z,1.15
2022-11-19T13:18:00.106Z,1.17
2022-11-19T13:22:07.833Z,1.22
2022-11-19T13:26:14.148Z,1.24
2022-11-19T13:30:21.014Z,1.23
2022-11-19T13:34:30.454Z,1.17
2022-11-19T13:38:44.637Z,1.15
2022-11-19T13:47:44.793Z,1.12
2022-11-19T13:51:52.037Z,1.11
2022-11-19T13:55:57.401Z,1.17
2022-11-19T14:00:07.515Z,1.12
2022-11-19T14:04:58.782Z,1.15
2022-11-19T14:09:18.492Z,1.14
2022-11-19T14:13:36.795Z,1.09
2022-11-19T14:18:04.216Z,1.06
2022-11-19T14:22:50.018Z,1.06
2022-11-19T14:27:17.285Z,1.04
2022-11-19T14:31:21.886Z,1.05
2022-11-19T14:35:42.421Z,1.04
2022-11-19T14:39:51.899Z,1.02
2022-11-19T14:44:13.124Z,1.06
2022-11-19T14:48:16.157Z,1.06
2022-11-19T14:52:22.275Z,1.08
2022-11-19T14:56:27.426Z,1.14
2022-11-19T15:00:33.257Z,1.20
2022-11-19T15:04:39.589Z,1.23
2022-11-19T15:08:49.324Z,1.27
2022-11-19T15:13:06.293Z,1.24
2022-11-19T15:17:11.451Z,1.21
2022-11-19T15:21:29.923Z,1.17
2022-11-19T15:25:45.410Z,1.17
2022-11-19T15:30:08.668Z,1.24
2022-11-19T15:34:49.142Z,1.19
2022-11-19T15:39:02.317Z,1.16
2022-11-19T15:43:14.051Z,1.14
2022-11-19T15:47:22.654Z,1.12
2022-11-19T15:51:25.816Z,1.07
2022-11-19T15:55:30.860Z,1.04
2022-11-19T15:59:37.454Z,1.03
2022-11-19T16:03:42.266Z,1.03
2022-11-19T16:07:46.836Z,1.04
2022-11-19T16:12:07.406Z,1.04
2022-11-19T16:16:33.657Z,0.96
2022-11-19T16:20:38.283Z,1.03
2022-11-19T16:24:58.718Z,1.00
2022-11-19T16:29:02.774Z,0.97
2022-11-19T16:33:06.146Z,0.97
2022-11-19T16:37:12.984Z,0.94
2022-11-19T16:41:36.283Z,0.96
2022-11-19T16:45:39.428Z,0.99
2022-11-19T16:49:57.252Z,0.99
2022-11-19T16:54:02.055Z,1.00
2022-11-19T16:58:15.215Z,1.00
2022-11-19T17:02:21.217Z,1.01
2022-11-19T17:06:25.739Z,0.98
2022-11-19T17:10:31.620Z,1.05
2022-11-19T17:14:54.278Z,1.06
2022-11-19T17:18:57.253Z,1.00
2022-11-19T17:23:01.485Z,0.96
2022-11-19T17:27:05.853Z,1.00
2022-11-19T17:31:17.010Z,1.07
2022-11-19T17:35:33.752Z,1.06
2022-11-19T17:39:36.727Z,1.03
2022-11-19T17:43:59.678Z,1.01
2022-11-19T17:48:03.082Z,1.04
2022-11-19T17:52:06.687Z,1.04
2022-11-19T17:56:17.610Z,1.04
2022-11-19T18:00:22.163Z,1.00
2022-11-19T18:04:27.039Z,1.00
2022-11-19T18:08:30.260Z,0.96
2022-11-19T18:12:34.021Z,0.96
2022-11-19T18:16:40.749Z,0.98
2022-11-19T18:20:43.986Z,1.05
2022-11-19T18:24:48.510Z,1.06
2022-11-19T18:28:51.698Z,1.10
2022-11-19T18:32:56.096Z,1.07
2022-11-19T18:36:59.151Z,1.07
2022-11-19T18:41:02.464Z,1.05
2022-11-19T18:45:06.989Z,1.05
2022-11-19T18:49:11.428Z,0.99
2022-11-19T18:53:14.422Z,1.00
2022-11-19T18:57:17.469Z,0.99
2022-11-19T19:01:20.666Z,1.03
2022-11-19T19:05:25.154Z,1.04
2022-11-19T19:09:28.268Z,1.04
2022-11-19T19:13:31.248Z,1.01
2022-11-19T19:17:34.509Z,1.00
2022-11-19T19:21:38.871Z,0.94
2022-11-19T19:25:41.903Z,0.96
2022-11-19T19:29:44.934Z,0.98
2022-11-19T19:33:48.289Z,0.99
2022-11-19T19:37:52.764Z,0.99
2022-11-19T19:41:55.938Z,0.98
2022-11-19T19:46:04.061Z,0.95
2022-11-19T19:50:08.052Z,0.96
2022-11-19T19:54:12.476Z,0.96
2022-11-19T19:58:15.696Z,0.98
2022-11-19T20:02:18.735Z,0.94
2022-11-19T20:06:22.833Z,0.94
2022-11-19T20:10:27.401Z,0.91
2022-11-19T20:14:30.448Z,0.94
2022-11-19T20:18:34.304Z,0.94
2022-11-19T20:22:37.570Z,0.95
2022-11-19T20:26:43.187Z,0.95
2022-11-19T20:30:46.266Z,0.95
2022-11-19T20:34:49.453Z,0.94
2022-11-19T20:38:52.973Z,0.93
2022-11-19T20:43:14.756Z,0.93
2022-11-19T20:47:18.512Z,0.92
2022-11-19T20:51:21.575Z,0.86
2022-11-19T20:55:24.556Z,0.85
2022-11-19T20:59:29.221Z,0.92
2022-11-19T21:03:33.865Z,0.96
2022-11-19T21:07:36.975Z,0.95
2022-11-19T21:11:40.037Z,0.96
2022-11-19T21:15:44.475Z,0.97
2022-11-19T21:19:48.572Z,1.04
2022-11-19T21:23:52.217Z,1.04
2022-11-19T21:27:55.241Z,0.99
2022-11-19T21:31:59.574Z,0.92
2022-11-19T21:36:04.325Z,0.94
2022-11-19T21:40:08.562Z,0.96
2022-11-19T21:44:16.534Z,0.96
2022-11-19T21:48:24.546Z,0.93
2022-11-19T21:52:28.352Z,0.89
2022-11-19T21:56:35.438Z,0.91
2022-11-19T22:00:42.150Z,0.89
2022-11-19T22:04:46.601Z,0.91
2022-11-19T22:08:49.647Z,0.96
2022-11-19T22:12:52.806Z,1.03
2022-11-19T22:16:55.814Z,1.06
2022-11-19T22:21:04.458Z,1.04
2022-11-19T22:25:07.830Z,1.01
2022-11-19T22:29:11.176Z,1.02
2022-11-19T22:33:14.179Z,1.01
2022-11-19T22:37:18.582Z,1.05
2022-11-19T22:41:22.713Z,1.08
2022-11-19T22:45:25.795Z,1.09
2022-11-19T22:49:29.051Z,1.13
2022-11-19T22:53:35.252Z,1.12
2022-11-19T22:57:38.279Z,1.12
2022-11-19T23:01:41.292Z,1.13
2022-11-19T23:18:32.928Z,1.04
2022-11-19T23:22:35.996Z,1.11
2022-11-19T23:26:39.389Z,1.12
2022-11-19T23:30:42.354Z,1.12
2022-11-19T23:34:46.835Z,1.11
2022-11-19T23:38:49.979Z,1.09
2022-11-19T23:42:52.981Z,0.95
2022-11-19T23:46:56.154Z,0.91
2022-11-19T23:51:03.288Z,0.89
2022-11-19T23:55:07.002Z,0.95
2022-11-19T23:59:10.055Z,0.93
